Time;durP1;ratioP1;P1;durP2;ratioP2;P2;SDS_P1;SDS_P2;PMS_P1;PMS_P2;Temp;Humidity;BMP_temperature;BMP_pressure;BME280_temperature;BME280_humidity;BME280_pressure;Samples;Min_cycle;Max_cycle;Signal;HPM_P1;HPM_P2
2023/03/04 00:01:38;;;;;;;31.48;3.00;;;7.00;97.10;;;;;;5074861;28;20085;-76
2023/03/04 00:04:03;;;;;;;23.27;3.60;;;6.90;97.20;;;;;;5073549;28;20029;-77
2023/03/04 00:06:29;;;;;;;28.67;3.45;;;6.70;97.70;;;;;;5075747;28;20055;-76
2023/03/04 00:08:55;;;;;;;22.95;3.35;;;6.60;97.90;;;;;;5072416;28;20028;-76
2023/03/04 00:11:20;;;;;;;19.85;3.10;;;6.60;97.80;;;;;;5071842;28;20111;-76
2023/03/04 00:13:46;;;;;;;27.98;4.20;;;6.80;97.80;;;;;;5072357;28;20119;-75
2023/03/04 00:16:12;;;;;;;30.33;3.95;;;6.80;97.70;;;;;;5072470;28;20036;-75
2023/03/04 00:18:37;;;;;;;32.95;4.35;;;6.90;97.60;;;;;;5072353;28;20058;-76
2023/03/04 00:21:03;;;;;;;19.63;2.80;;;7.10;97.40;;;;;;5071361;28;20079;-74
2023/03/04 00:23:29;;;;;;;18.92;3.53;;;7.10;97.30;;;;;;5072254;28;20339;-74
2023/03/04 00:25:54;;;;;;;30.70;3.25;;;7.10;97.00;;;;;;5072648;28;20099;-75
2023/03/04 00:28:20;;;;;;;21.23;3.35;;;7.30;97.00;;;;;;5071128;28;20285;-77
2023/03/04 00:30:46;;;;;;;26.33;4.18;;;7.20;97.10;;;;;;5072218;28;20048;-76
2023/03/04 00:33:11;;;;;;;16.40;3.60;;;7.20;96.80;;;;;;5071899;28;20421;-75
2023/03/04 00:35:37;;;;;;;19.00;4.25;;;7.00;97.20;;;;;;5072069;28;20020;-78
2023/03/04 00:38:03;;;;;;;22.73;3.58;;;6.80;97.30;;;;;;5072623;28;20066;-78
2023/03/04 00:40:29;;;;;;;26.98;4.20;;;6.90;97.50;;;;;;5072170;28;20035;-78
2023/03/04 00:42:54;;;;;;;28.52;4.88;;;7.10;97.20;;;;;;5071917;28;20373;-77
2023/03/04 00:45:20;;;;;;;30.52;3.88;;;7.00;97.40;;;;;;5071842;28;20068;-77
2023/03/04 00:47:45;;;;;;;26.88;4.00;;;6.90;97.40;;;;;;5070482;28;20028;-76
2023/03/04 00:50:11;;;;;;;21.75;3.60;;;7.10;97.40;;;;;;5072056;28;20024;-77
2023/03/04 00:52:37;;;;;;;15.70;3.70;;;7.10;97.40;;;;;;5071599;28;20397;-77
2023/03/04 00:55:03;;;;;;;19.60;4.07;;;7.10;97.30;;;;;;5071672;28;20362;-76
2023/03/04 00:57:29;;;;;;;24.00;3.95;;;7.00;97.40;;;;;;5071550;28;20039;-77
2023/03/04 00:59:55;;;;;;;24.85;4.00;;;7.10;97.50;;;;;;5070198;28;20028;-76
2023/03/04 01:02:20;;;;;;;27.25;3.47;;;7.30;97.70;;;;;;5071923;28;20029;-78
2023/03/04 01:04:46;;;;;;;32.78;4.80;;;7.20;97.30;;;;;;5071576;28;20060;-77
2023/03/04 01:07:12;;;;;;;25.38;3.40;;;7.30;97.30;;;;;;5071411;28;20032;-76
2023/03/04 01:09:37;;;;;;;29.60;4.22;;;7.20;97.30;;;;;;5071330;28;20029;-76
2023/03/04 01:12:03;;;;;;;27.83;3.80;;;7.20;97.30;;;;;;5071023;28;20029;-77
2023/03/04 01:14:29;;;;;;;21.58;3.70;;;7.20;97.30;;;;;;5071221;28;20342;-78
2023/03/04 01:16:54;;;;;;;18.00;3.25;;;7.30;97.30;;;;;;5070977;28;20028;-77
2023/03/04 01:19:20;;;;;;;20.33;3.50;;;7.30;97.30;;;;;;5071083;28;20096;-77
2023/03/04 01:21:46;;;;;;;19.23;3.58;;;7.10;97.40;;;;;;5070222;28;20401;-77
2023/03/04 01:24:11;;;;;;;28.70;3.83;;;7.20;97.40;;;;;;5069993;28;20029;-78
2023/03/04 01:26:37;;;;;;;28.35;3.40;;;7.10;97.60;;;;;;5070935;28;20108;-78
2023/03/04 01:29:03;;;;;;;22.55;3.53;;;7.20;97.60;;;;;;5071278;28;20110;-77
2023/03/04 01:31:29;;;;;;;19.05;3.10;;;7.30;97.50;;;;;;5070873;28;20449;-76
2023/03/04 01:33:55;;;;;;;25.33;3.15;;;7.30;97.30;;;;;;5070996;28;20051;-77
2023/03/04 01:36:20;;;;;;;20.80;2.92;;;7.40;97.40;;;;;;5070967;28;20032;-77
2023/03/04 01:38:46;;;;;;;19.73;2.78;;;7.40;97.60;;;;;;5071218;28;20029;-77
2023/03/04 01:41:12;;;;;;;26.23;3.50;;;7.20;97.50;;;;;;5071119;28;20028;-77
2023/03/04 01:43:38;;;;;;;21.42;3.35;;;7.20;97.60;;;;;;5070625;28;20043;-78
2023/03/04 01:46:05;;;;;;;48.80;6.22;;;7.20;97.60;;;;;;5070925;28;20099;-78
2023/03/04 01:48:35;;;;;;;19.13;3.25;;;7.10;97.80;;;;;;5070716;28;20029;-79
2023/03/04 01:51:02;;;;;;;18.90;3.10;;;7.20;97.80;;;;;;5070720;28;20036;-78
2023/03/04 01:53:29;;;;;;;22.08;3.53;;;7.20;97.80;;;;;;5070327;28;20521;-77
2023/03/04 01:56:10;;;;;;;19.10;3.22;;;7.10;98.00;;;;;;5070880;28;20021;-78
2023/03/04 01:58:36;;;;;;;17.58;2.92;;;7.10;97.90;;;;;;5069349;28;20032;-78
2023/03/04 02:01:02;;;;;;;26.48;2.95;;;7.30;97.90;;;;;;5070475;28;20028;-78
2023/03/04 02:03:28;;;;;;;27.30;4.05;;;7.20;97.90;;;;;;5069233;28;20076;-77
2023/03/04 02:05:55;;;;;;;22.00;2.50;;;7.20;97.90;;;;;;5070331;28;20349;-78
2023/03/04 02:08:23;;;;;;;18.02;3.10;;;7.10;98.00;;;;;;5070797;28;20032;-77
2023/03/04 02:10:50;;;;;;;16.98;3.47;;;7.20;98.00;;;;;;5070661;28;20043;-76
2023/03/04 02:13:16;;;;;;;19.30;2.78;;;7.30;97.80;;;;;;5069014;28;20037;-78
2023/03/04 02:15:43;;;;;;;22.63;3.05;;;7.30;97.80;;;;;;5069294;28;20037;-78
2023/03/04 02:18:21;;;;;;;11.48;1.98;;;7.30;97.90;;;;;;5070290;28;20020;-78
2023/03/04 02:21:21;;;;;;;24.58;2.80;;;7.50;98.00;;;;;;5070410;28;20036;-77
2023/03/04 02:24:14;;;;;;;15.25;2.67;;;7.20;98.10;;;;;;5070706;28;20095;-75
2023/03/04 02:26:42;;;;;;;20.40;2.92;;;7.30;98.00;;;;;;5070544;28;20027;-77
2023/03/04 02:29:10;;;;;;;15.25;2.58;;;7.30;98.10;;;;;;5072768;28;20036;-75
2023/03/04 02:31:44;;;;;;;15.55;2.53;;;7.40;98.10;;;;;;5074213;28;20045;-76
2023/03/04 02:34:12;;;;;;;17.40;3.97;;;7.30;98.00;;;;;;5074063;28;20037;-75
2023/03/04 02:36:39;;;;;;;16.67;2.45;;;7.20;98.30;;;;;;5089546;28;20024;-75
2023/03/04 02:39:14;;;;;;;18.67;2.50;;;7.30;98.30;;;;;;5093573;28;20032;-76
2023/03/04 02:41:39;;;;;;;22.55;3.15;;;7.20;98.20;;;;;;5093348;28;20020;-76
2023/03/04 02:44:33;;;;;;;15.55;2.55;;;7.30;98.30;;;;;;5093552;28;20027;-75
2023/03/04 02:47:00;;;;;;;14.38;2.38;;;7.30;98.30;;;;;;5091645;28;20035;-76
2023/03/04 02:49:28;;;;;;;14.48;2.35;;;7.30;98.40;;;;;;5092723;28;20313;-77
2023/03/04 02:52:19;;;;;;;21.10;2.60;;;7.10;98.60;;;;;;5094391;28;20020;-75
2023/03/04 02:54:45;;;;;;;14.93;2.50;;;7.10;98.80;;;;;;5094151;28;20032;-75
2023/03/04 02:57:12;;;;;;;15.75;2.25;;;7.20;98.90;;;;;;5094074;28;20039;-76
2023/03/04 02:59:39;;;;;;;11.40;1.90;;;7.20;98.70;;;;;;5094351;28;20024;-75
2023/03/04 03:02:06;;;;;;;15.50;2.13;;;7.30;98.60;;;;;;5094734;28;20315;-75
2023/03/04 03:04:33;;;;;;;11.50;2.25;;;7.20;98.70;;;;;;5092872;28;20032;-76
2023/03/04 03:06:59;;;;;;;26.77;2.88;;;7.20;98.80;;;;;;5093957;28;20028;-76
2023/03/04 03:09:24;;;;;;;19.23;2.50;;;7.30;98.70;;;;;;5093916;28;20054;-77
2023/03/04 03:11:50;;;;;;;12.80;1.85;;;7.20;98.80;;;;;;5093948;28;20111;-76
2023/03/04 03:14:16;;;;;;;12.27;2.22;;;7.20;98.90;;;;;;5094310;28;20169;-77
2023/03/04 03:16:42;;;;;;;13.25;2.20;;;7.30;98.80;;;;;;5094055;28;20044;-76
2023/03/04 03:19:08;;;;;;;15.32;2.28;;;7.40;98.50;;;;;;5093950;28;20436;-77
2023/03/04 03:21:33;;;;;;;20.88;2.58;;;7.30;98.60;;;;;;5093920;28;20024;-76
2023/03/04 03:23:59;;;;;;;12.10;1.65;;;7.20;99.10;;;;;;5093193;28;20039;-77
2023/03/04 03:26:25;;;;;;;11.32;2.13;;;7.20;98.80;;;;;;5094047;28;20012;-77
2023/03/04 03:28:50;;;;;;;16.00;2.65;;;7.20;99.10;;;;;;5093760;28;20165;-76
2023/03/04 03:31:16;;;;;;;13.38;2.13;;;7.20;99.00;;;;;;5093331;28;20429;-77
2023/03/04 03:33:41;;;;;;;16.58;2.33;;;7.10;99.30;;;;;;5093419;28;20455;-76
2023/03/04 03:36:07;;;;;;;18.58;2.35;;;7.10;99.30;;;;;;5093586;28;20024;-77
2023/03/04 03:38:34;;;;;;;17.02;1.83;;;7.20;99.10;;;;;;5093436;28;20115;-76
2023/03/04 03:40:59;;;;;;;8.75;1.40;;;7.40;98.90;;;;;;5093104;28;20060;-77
2023/03/04 03:43:25;;;;;;;13.93;1.58;;;7.30;99.00;;;;;;5092247;28;20044;-77
2023/03/04 03:45:51;;;;;;;8.75;1.58;;;7.30;99.10;;;;;;5092437;28;20163;-77
2023/03/04 03:48:17;;;;;;;19.60;2.67;;;7.30;99.20;;;;;;5093378;28;20043;-76
2023/03/04 03:50:44;;;;;;;14.45;1.92;;;7.40;99.20;;;;;;5092183;28;20016;-76
2023/03/04 03:53:10;;;;;;;12.15;2.15;;;7.50;98.90;;;;;;5092565;28;20020;-77
2023/03/04 03:55:36;;;;;;;15.75;2.20;;;7.30;99.00;;;;;;5093108;28;20035;-75
2023/03/04 03:58:01;;;;;;;16.50;3.65;;;7.30;99.30;;;;;;5093291;28;20405;-75
2023/03/04 04:00:27;;;;;;;11.38;1.92;;;7.30;99.20;;;;;;5093040;28;20032;-77
2023/03/04 04:02:56;;;;;;;6.07;1.60;;;7.20;99.20;;;;;;5093032;28;20127;-76
2023/03/04 04:05:21;;;;;;;12.38;1.77;;;7.20;99.30;;;;;;5093242;28;20058;-77
2023/03/04 04:07:47;;;;;;;15.23;2.17;;;7.20;99.40;;;;;;5091743;28;20432;-77
2023/03/04 04:10:13;;;;;;;15.27;2.38;;;7.20;99.30;;;;;;5091708;28;20028;-76
2023/03/04 04:12:38;;;;;;;9.55;1.63;;;7.30;99.20;;;;;;5092679;28;20032;-75
2023/03/04 04:15:05;;;;;;;9.15;1.95;;;7.30;99.30;;;;;;5092487;28;20028;-76
2023/03/04 04:17:30;;;;;;;10.05;1.63;;;7.20;99.40;;;;;;5092755;28;20043;-75
2023/03/04 04:19:56;;;;;;;18.80;2.10;;;7.20;99.40;;;;;;5092844;28;20355;-75
2023/03/04 04:22:22;;;;;;;7.97;1.50;;;7.20;99.50;;;;;;5091423;28;20474;-75
2023/03/04 04:24:47;;;;;;;6.45;1.30;;;7.30;99.30;;;;;;5091235;28;20036;-75
2023/03/04 04:27:13;;;;;;;12.52;1.77;;;7.20;99.50;;;;;;5091071;28;20024;-76
2023/03/04 04:29:39;;;;;;;11.40;1.55;;;7.30;99.70;;;;;;5091809;28;20040;-75
2023/03/04 04:32:06;;;;;;;11.32;1.95;;;7.20;99.80;;;;;;5092775;28;20323;-76
2023/03/04 04:34:31;;;;;;;11.00;1.80;;;7.30;99.90;;;;;;5092318;28;20052;-77
2023/03/04 04:36:57;;;;;;;13.65;2.85;;;7.10;99.90;;;;;;5092315;28;20055;-76
2023/03/04 04:39:23;;;;;;;16.17;1.58;;;7.20;99.90;;;;;;5091211;28;20028;-76
2023/03/04 04:41:49;;;;;;;12.15;2.17;;;7.20;99.90;;;;;;5092194;28;20093;-76
2023/03/04 04:44:15;;;;;;;17.35;2.30;;;7.10;99.90;;;;;;5091446;28;20382;-75
2023/03/04 04:46:41;;;;;;;13.57;1.63;;;7.20;99.90;;;;;;5090995;28;20197;-76
2023/03/04 04:49:07;;;;;;;18.02;1.80;;;7.20;99.90;;;;;;5092041;28;20032;-75
2023/03/04 04:51:34;;;;;;;19.88;2.72;;;7.00;99.90;;;;;;5090918;28;20119;-75
2023/03/04 04:54:01;;;;;;;10.50;1.40;;;7.00;99.90;;;;;;5092103;28;20028;-74
2023/03/04 04:56:27;;;;;;;18.70;1.85;;;7.00;99.90;;;;;;5091187;28;20428;-76
2023/03/04 04:58:58;;;;;;;12.95;2.03;;;7.00;99.90;;;;;;5091731;28;20028;-76
2023/03/04 05:01:24;;;;;;;10.98;2.30;;;6.90;99.90;;;;;;5091929;28;20035;-75
2023/03/04 05:03:52;;;;;;;20.25;1.60;;;7.00;99.90;;;;;;5091555;28;20032;-77
2023/03/04 05:06:18;;;;;;;16.23;1.77;;;7.00;99.90;;;;;;5090482;28;20028;-76
2023/03/04 05:08:44;;;;;;;9.82;1.60;;;7.00;99.90;;;;;;5091551;28;20020;-76
2023/03/04 05:11:10;;;;;;;10.98;1.48;;;7.00;99.90;;;;;;5092167;28;20028;-76
2023/03/04 05:13:36;;;;;;;7.80;1.00;;;7.00;99.90;;;;;;5091359;28;20084;-75
2023/03/04 05:16:02;;;;;;;12.40;1.50;;;6.90;99.90;;;;;;5090323;28;20482;-76
2023/03/04 05:18:28;;;;;;;12.20;2.33;;;6.90;99.90;;;;;;5091626;28;20138;-75
2023/03/04 05:20:55;;;;;;;10.88;2.50;;;7.00;99.90;;;;;;5091264;28;20039;-76
2023/03/04 05:23:23;;;;;;;13.93;2.00;;;6.90;99.90;;;;;;5091898;28;20024;-77
2023/03/04 05:25:49;;;;;;;18.95;1.48;;;7.00;99.90;;;;;;5091653;28;20373;-77
2023/03/04 05:28:16;;;;;;;13.73;1.70;;;6.90;99.90;;;;;;5090578;28;20032;-75
2023/03/04 05:30:43;;;;;;;15.88;2.28;;;6.90;99.90;;;;;;5091418;28;20089;-77
2023/03/04 05:33:10;;;;;;;9.00;2.13;;;6.80;99.90;;;;;;5091346;28;20039;-76
2023/03/04 05:35:37;;;;;;;12.35;1.50;;;6.70;99.90;;;;;;5091210;28;20264;-77
2023/03/04 05:38:05;;;;;;;13.73;2.17;;;6.70;99.90;;;;;;5091648;28;20080;-77
2023/03/04 05:40:32;;;;;;;9.52;1.75;;;6.80;99.90;;;;;;5090112;28;20431;-76
2023/03/04 05:42:57;;;;;;;10.35;1.20;;;6.80;99.90;;;;;;5089849;28;20028;-76
2023/03/04 05:45:24;;;;;;;10.23;1.67;;;6.90;99.90;;;;;;5090919;28;20024;-76
2023/03/04 05:47:50;;;;;;;12.95;1.42;;;6.90;99.90;;;;;;5090919;28;20031;-76
2023/03/04 05:50:16;;;;;;;14.38;1.83;;;6.90;99.90;;;;;;5091156;28;20028;-75
2023/03/04 05:52:42;;;;;;;15.13;1.85;;;6.90;99.90;;;;;;5090727;28;20040;-76
2023/03/04 05:55:08;;;;;;;11.57;1.48;;;7.00;99.90;;;;;;5091096;28;20405;-76
2023/03/04 05:57:33;;;;;;;9.23;1.40;;;6.90;99.90;;;;;;5090620;28;20352;-76
2023/03/04 05:59:59;;;;;;;13.43;1.40;;;6.80;99.90;;;;;;5090818;28;20031;-75
2023/03/04 06:02:25;;;;;;;12.73;1.90;;;6.80;99.90;;;;;;5090887;28;20028;-75
2023/03/04 06:04:50;;;;;;;8.93;1.52;;;6.80;99.90;;;;;;5089506;28;20032;-76
2023/03/04 06:07:16;;;;;;;15.98;1.70;;;6.80;99.90;;;;;;5090600;28;20028;-77
2023/03/04 06:09:44;;;;;;;23.10;2.03;;;6.90;99.90;;;;;;5089321;28;20382;-75
2023/03/04 06:12:12;;;;;;;10.43;1.70;;;6.90;99.90;;;;;;5090793;28;20454;-75
2023/03/04 06:14:38;;;;;;;16.80;2.42;;;6.80;99.90;;;;;;5089286;28;20036;-77
2023/03/04 06:17:04;;;;;;;9.93;1.67;;;6.90;99.90;;;;;;5090938;28;20020;-75
2023/03/04 06:19:30;;;;;;;11.63;1.65;;;7.00;99.90;;;;;;5089309;28;20027;-76
2023/03/04 06:21:56;;;;;;;10.88;1.23;;;7.00;99.90;;;;;;5090326;28;20108;-77
2023/03/04 06:24:21;;;;;;;14.80;1.92;;;7.00;99.90;;;;;;5090415;28;20119;-77
2023/03/04 06:26:47;;;;;;;6.05;1.05;;;6.90;99.90;;;;;;5090689;28;20399;-77
2023/03/04 06:29:12;;;;;;;9.95;1.73;;;6.90;99.90;;;;;;5090918;28;20016;-76
2023/03/04 06:31:40;;;;;;;9.02;1.10;;;6.90;99.90;;;;;;5090100;28;20237;-78
2023/03/04 06:34:07;;;;;;;10.05;1.65;;;6.80;99.90;;;;;;5090509;28;20051;-76
2023/03/04 06:36:33;;;;;;;9.50;1.65;;;6.70;99.90;;;;;;5089207;28;20039;-77
2023/03/04 06:39:00;;;;;;;14.60;1.88;;;6.70;99.90;;;;;;5090284;28;20432;-76
2023/03/04 06:41:26;;;;;;;14.77;2.53;;;6.70;99.90;;;;;;5090825;28;20020;-74
2023/03/04 06:43:54;;;;;;;7.70;1.50;;;6.80;99.90;;;;;;5090133;28;20037;-77
2023/03/04 06:46:20;;;;;;;13.95;1.80;;;6.90;99.90;;;;;;5090287;28;20165;-77
2023/03/04 06:48:46;;;;;;;7.88;1.45;;;6.90;99.90;;;;;;5090085;28;20491;-76
2023/03/04 06:51:12;;;;;;;12.57;1.60;;;6.90;99.90;;;;;;5090321;28;20385;-76
2023/03/04 06:53:39;;;;;;;9.18;1.60;;;6.90;99.90;;;;;;5090469;28;20051;-75
2023/03/04 06:56:06;;;;;;;8.77;1.58;;;7.00;99.90;;;;;;5090644;28;20016;-75
2023/03/04 06:58:32;;;;;;;11.77;1.37;;;7.00;99.90;;;;;;5090629;28;20073;-75
2023/03/04 07:01:28;;;;;;;19.40;2.08;;;7.00;99.90;;;;;;5090230;28;20411;-77
2023/03/04 07:03:55;;;;;;;14.32;1.83;;;7.00;99.90;;;;;;5089490;28;20032;-76
2023/03/04 07:06:23;;;;;;;12.32;1.52;;;7.00;99.90;;;;;;5090026;28;20028;-76
2023/03/04 07:08:49;;;;;;;9.68;1.35;;;7.00;99.90;;;;;;5088793;28;20036;-76
2023/03/04 07:11:15;;;;;;;14.13;1.92;;;7.10;99.90;;;;;;5090599;28;20094;-75
2023/03/04 07:13:41;;;;;;;5.00;1.38;;;7.20;99.90;;;;;;5090054;28;20032;-76
2023/03/04 07:16:09;;;;;;;10.13;1.73;;;7.10;99.90;;;;;;5092057;28;20034;-75
2023/03/04 07:18:36;;;;;;;11.52;1.15;;;6.90;99.90;;;;;;5093765;28;20024;-75
2023/03/04 07:21:02;;;;;;;12.00;1.70;;;7.00;99.90;;;;;;5093919;28;20109;-76
2023/03/04 07:23:27;;;;;;;11.00;1.42;;;7.10;99.90;;;;;;5093867;28;20054;-76
2023/03/04 07:25:53;;;;;;;11.05;2.30;;;7.20;99.90;;;;;;5093539;28;20050;-75
2023/03/04 07:28:19;;;;;;;10.20;1.92;;;7.10;99.90;;;;;;5093895;28;20181;-76
2023/03/04 07:30:45;;;;;;;8.50;1.70;;;7.00;99.90;;;;;;5093440;28;20093;-76
2023/03/04 07:33:11;;;;;;;9.35;1.65;;;7.10;99.90;;;;;;5093424;28;20039;-75
2023/03/04 07:35:37;;;;;;;13.13;1.98;;;7.00;99.90;;;;;;5093383;28;20019;-71
2023/03/04 07:38:02;;;;;;;11.20;2.03;;;7.00;99.90;;;;;;5093648;28;20369;-72
2023/03/04 07:40:28;;;;;;;11.50;1.98;;;7.10;99.90;;;;;;5092124;28;20136;-72
2023/03/04 07:42:55;;;;;;;11.77;2.35;;;7.00;99.90;;;;;;5093293;28;20048;-72
2023/03/04 07:45:22;;;;;;;10.30;1.90;;;7.10;99.90;;;;;;5092209;28;20783;-72
2023/03/04 07:47:48;;;;;;;11.40;1.85;;;7.10;99.90;;;;;;5091992;28;20195;-73
2023/03/04 07:50:14;;;;;;;13.23;2.20;;;7.20;99.90;;;;;;5093421;28;20095;-71
2023/03/04 07:52:41;;;;;;;9.23;1.45;;;7.20;99.90;;;;;;5091726;28;20093;-72
2023/03/04 07:55:08;;;;;;;9.95;2.03;;;7.40;99.90;;;;;;5092897;28;20066;-73
2023/03/04 07:57:34;;;;;;;10.73;1.93;;;7.50;99.90;;;;;;5093005;28;20047;-74
2023/03/04 07:59:59;;;;;;;13.23;1.65;;;7.60;99.90;;;;;;5092953;28;20040;-72
2023/03/04 08:02:25;;;;;;;9.82;1.35;;;7.50;99.90;;;;;;5093048;28;20024;-73
2023/03/04 08:04:51;;;;;;;9.70;1.30;;;7.40;99.90;;;;;;5093074;28;20044;-73
2023/03/04 08:07:16;;;;;;;12.02;1.70;;;7.50;99.90;;;;;;5091722;28;20462;-71
2023/03/04 08:09:42;;;;;;;5.97;1.40;;;7.40;99.90;;;;;;5092888;28;20031;-71
2023/03/04 08:12:08;;;;;;;9.23;1.70;;;7.30;99.90;;;;;;5092684;28;20028;-72
2023/03/04 08:14:33;;;;;;;9.55;1.48;;;7.40;99.90;;;;;;5092613;28;20091;-72
2023/03/04 08:16:59;;;;;;;5.82;1.67;;;7.40;99.90;;;;;;5092999;28;20413;-70
2023/03/04 08:19:25;;;;;;;7.35;1.67;;;7.50;99.90;;;;;;5092502;28;20361;-71
2023/03/04 08:21:51;;;;;;;10.02;1.90;;;7.50;99.90;;;;;;5092543;28;20031;-73
2023/03/04 08:24:16;;;;;;;7.78;2.15;;;7.50;99.90;;;;;;5091376;28;20310;-72
2023/03/04 08:26:46;;;;;;;8.15;1.92;;;7.50;99.90;;;;;;5091157;28;20028;-72
2023/03/04 08:29:23;;;;;;;8.77;1.95;;;7.70;99.90;;;;;;5091729;28;20020;-72
2023/03/04 08:31:51;;;;;;;7.22;1.75;;;7.60;99.90;;;;;;5092251;28;20062;-73
2023/03/04 08:34:19;;;;;;;9.95;1.95;;;7.50;99.90;;;;;;5091154;28;20039;-73
2023/03/04 08:36:44;;;;;;;6.63;2.08;;;7.70;99.90;;;;;;5092427;28;20363;-73
2023/03/04 08:39:15;;;;;;;10.40;2.20;;;7.50;99.90;;;;;;5083558;28;20516;-73
2023/03/04 08:41:41;;;;;;;7.80;1.40;;;7.70;99.90;;;;;;5072827;28;20366;-73
2023/03/04 08:44:09;;;;;;;5.53;2.10;;;7.70;99.90;;;;;;5073288;28;20458;-71
2023/03/04 08:46:36;;;;;;;12.73;1.85;;;7.70;99.90;;;;;;5072820;28;20100;-73
2023/03/04 08:49:02;;;;;;;8.30;1.98;;;7.60;99.90;;;;;;5072963;28;20112;-72
2023/03/04 08:51:28;;;;;;;5.05;1.63;;;7.70;99.90;;;;;;5072802;28;20025;-73
2023/03/04 08:53:53;;;;;;;11.60;2.40;;;7.60;99.90;;;;;;5072293;28;20032;-73
2023/03/04 08:56:19;;;;;;;7.82;2.53;;;7.40;99.90;;;;;;5073427;28;20024;-72
2023/03/04 08:58:45;;;;;;;13.98;4.82;;;7.30;99.90;;;;;;5072558;28;20336;-73
2023/03/04 09:01:12;;;;;;;15.68;6.45;;;7.60;99.90;;;;;;5071544;28;20067;-73
2023/03/04 09:03:38;;;;;;;17.42;7.55;;;7.60;99.90;;;;;;5072583;28;20041;-73
2023/03/04 09:06:05;;;;;;;17.30;7.68;;;7.60;99.90;;;;;;5072534;28;20126;-74
2023/03/04 09:08:31;;;;;;;16.15;8.07;;;7.60;99.90;;;;;;5071877;28;20036;-73
2023/03/04 09:10:57;;;;;;;20.30;8.30;;;7.80;99.90;;;;;;5071643;28;20032;-73
2023/03/04 09:13:24;;;;;;;19.02;8.27;;;7.80;99.90;;;;;;5072366;28;20028;-73
2023/03/04 09:15:51;;;;;;;15.93;7.70;;;7.90;99.90;;;;;;5072469;28;20036;-74
2023/03/04 09:18:19;;;;;;;19.25;7.00;;;8.00;99.90;;;;;;5071284;28;20051;-75
2023/03/04 09:20:45;;;;;;;16.85;5.18;;;7.90;99.90;;;;;;5071163;28;20580;-77
2023/03/04 09:23:11;;;;;;;8.70;3.85;;;8.10;99.90;;;;;;5072762;28;20086;-77
2023/03/04 09:25:38;;;;;;;15.23;3.75;;;8.20;99.90;;;;;;5071155;28;20429;-74
2023/03/04 09:28:04;;;;;;;8.07;2.60;;;8.60;99.90;;;;;;5072349;28;20082;-73
2023/03/04 09:30:30;;;;;;;9.27;2.15;;;8.50;99.90;;;;;;5071977;28;20131;-73
2023/03/04 09:32:56;;;;;;;7.05;2.38;;;8.70;99.90;;;;;;5071982;28;20120;-73
2023/03/04 09:35:24;;;;;;;13.60;2.40;;;8.60;99.90;;;;;;5072762;28;20070;-72
2023/03/04 09:37:49;;;;;;;19.85;3.70;;;8.70;99.90;;;;;;5071439;28;20443;-71
2023/03/04 09:40:26;;;;;;;9.00;3.30;;;8.40;99.90;;;;;;5070391;28;20043;-75
2023/03/04 09:42:57;;;;;;;18.25;4.07;;;8.30;99.90;;;;;;5071786;28;20086;-72
2023/03/04 09:45:28;;;;;;;16.48;5.28;;;8.30;99.90;;;;;;5071977;28;20055;-74
2023/03/04 09:47:55;;;;;;;21.35;5.65;;;8.40;99.90;;;;;;5071807;28;20370;-76
2023/03/04 09:50:21;;;;;;;14.38;5.45;;;8.40;99.90;;;;;;5071287;28;20123;-76
2023/03/04 09:53:00;;;;;;;17.42;5.13;;;8.70;99.90;;;;;;5070273;28;20032;-75
2023/03/04 09:55:33;;;;;;;13.02;4.35;;;8.60;99.90;;;;;;5071472;28;20055;-75
2023/03/04 09:58:06;;;;;;;12.00;3.90;;;8.40;99.90;;;;;;5070556;28;20110;-75
2023/03/04 10:00:54;;;;;;;13.27;3.50;;;8.30;99.90;;;;;;5070849;28;20039;-76
2023/03/04 10:03:42;;;;;;;9.13;3.15;;;8.60;99.90;;;;;;5070534;28;20034;-76
2023/03/04 10:06:10;;;;;;;;;;;8.30;99.90;;;;;;5071047;28;20048;-76
2023/03/04 10:09:03;;;;;;;15.50;2.80;;;8.30;99.90;;;;;;5070692;28;20343;-75
2023/03/04 10:12:00;;;;;;;11.00;2.88;;;8.30;99.90;;;;;;5070564;28;20089;-73
2023/03/04 10:14:43;;;;;;;17.85;2.22;;;8.50;99.90;;;;;;5069900;28;20020;-75
2023/03/04 10:17:12;;;;;;;13.90;3.03;;;8.40;99.90;;;;;;5070412;28;20281;-76
2023/03/04 10:20:00;;;;;;;11.68;2.75;;;8.20;99.90;;;;;;5070564;28;20032;-74
2023/03/04 10:22:46;;;;;;;14.93;3.03;;;8.20;99.90;;;;;;5070450;28;20331;-75
2023/03/04 10:25:23;;;;;;;12.88;2.88;;;8.40;99.90;;;;;;5069318;28;20097;-74
2023/03/04 10:28:09;;;;;;;17.65;3.42;;;8.40;99.90;;;;;;5070556;28;20635;-74
2023/03/04 10:30:48;;;;;;;15.13;2.95;;;8.40;99.90;;;;;;5056200;28;20378;-75
2023/03/04 10:33:35;;;;;;;21.75;3.50;;;8.20;99.90;;;;;;5069407;28;20067;-76
2023/03/04 10:36:29;;;;;;;13.10;4.57;;;8.20;99.90;;;;;;5068891;28;20209;-76
2023/03/04 10:39:06;;;;;;;17.92;4.03;;;8.10;99.90;;;;;;5070631;28;20042;-75
2023/03/04 10:41:32;;;;;;;27.03;4.23;;;8.40;99.90;;;;;;5070416;28;20029;-75
2023/03/04 10:44:15;;;;;;;18.33;3.25;;;8.10;99.90;;;;;;5070737;28;20510;-74
2023/03/04 10:46:43;;;;;;;15.68;2.85;;;8.30;99.90;;;;;;5070325;28;20082;-75
2023/03/04 10:49:16;;;;;;;18.67;2.72;;;8.50;99.90;;;;;;5070463;28;20535;-75
2023/03/04 10:52:00;;;;;;;20.60;3.33;;;8.90;99.90;;;;;;5073934;28;20094;-77
2023/03/04 10:54:30;;;;;;;7.88;3.30;;;8.90;99.90;;;;;;5073922;28;20474;-76
2023/03/04 10:56:58;;;;;;;23.73;2.72;;;9.00;99.90;;;;;;5074294;28;20033;-75
2023/03/04 10:59:52;;;;;;;19.83;3.50;;;9.20;99.90;;;;;;5073227;28;20437;-75
2023/03/04 11:02:25;;;;;;;16.58;3.08;;;9.40;99.90;;;;;;5074158;28;20046;-75
2023/03/04 11:04:55;;;;;;;11.30;2.28;;;9.50;99.80;;;;;;5074358;28;20021;-75
2023/03/04 11:07:22;;;;;;;9.25;2.10;;;9.80;99.90;;;;;;5072633;28;20032;-74
2023/03/04 11:09:48;;;;;;;17.90;2.50;;;9.90;99.40;;;;;;5072769;28;20374;-74
2023/03/04 11:12:16;;;;;;;10.70;2.38;;;9.90;99.20;;;;;;5073911;28;20029;-76
2023/03/04 11:14:47;;;;;;;6.70;1.88;;;9.60;99.10;;;;;;5072602;28;20024;-75
2023/03/04 11:17:16;;;;;;;12.10;2.28;;;9.50;99.00;;;;;;5074339;28;20031;-74
2023/03/04 11:19:47;;;;;;;8.48;1.55;;;9.40;98.80;;;;;;5072856;28;20037;-75
2023/03/04 11:22:19;;;;;;;9.77;1.52;;;9.30;98.80;;;;;;5073900;28;20394;-75
2023/03/04 11:24:57;;;;;;;14.35;1.77;;;9.30;98.80;;;;;;5072803;28;20052;-76
2023/03/04 11:27:52;;;;;;;11.63;1.73;;;9.00;98.90;;;;;;5073696;28;20078;-75
2023/03/04 11:30:21;;;;;;;9.60;1.67;;;8.80;99.30;;;;;;5071580;28;20041;-75
2023/03/04 11:32:50;;;;;;;15.55;1.98;;;8.90;99.70;;;;;;5073482;28;20024;-75
2023/03/04 11:35:35;;;;;;;12.82;2.42;;;9.10;99.40;;;;;;5073766;28;20100;-75
2023/03/04 11:38:19;;;;;;;10.48;2.13;;;9.20;99.30;;;;;;5073561;28;20041;-74
2023/03/04 11:40:53;;;;;;;12.35;2.70;;;9.30;99.40;;;;;;5073800;28;20029;-74
2023/03/04 11:43:36;;;;;;;9.02;1.83;;;9.70;99.40;;;;;;5073392;28;20489;-75
2023/03/04 11:46:20;;;;;;;14.95;2.85;;;10.30;98.50;;;;;;5073399;28;20049;-75
2023/03/04 11:49:37;;;;;;;16.67;2.40;;;11.30;97.80;;;;;;5073447;28;20043;-76
2023/03/04 11:52:11;;;;;;;15.93;2.63;;;12.10;95.90;;;;;;5038693;28;20028;-76
2023/03/04 11:55:12;;;;;;;7.75;2.42;;;11.90;94.70;;;;;;5073126;28;20094;-75
2023/03/04 11:57:47;;;;;;;15.07;2.58;;;11.50;94.10;;;;;;5030833;28;20032;-75
2023/03/04 12:00:44;;;;;;;20.90;3.05;;;11.40;95.10;;;;;;5071330;28;20033;-75
2023/03/04 12:03:49;;;;;;;13.60;2.58;;;11.00;95.30;;;;;;5072059;28;20358;-75
2023/03/04 12:06:57;;;;;;;9.32;2.05;;;11.00;95.50;;;;;;5073002;28;20036;-77
2023/03/04 12:09:28;;;;;;;10.88;2.20;;;10.80;95.90;;;;;;5072634;28;20120;-75
2023/03/04 12:12:19;;;;;;;12.48;2.10;;;10.60;94.80;;;;;;5071575;28;20107;-73
2023/03/04 12:15:09;;;;;;;16.25;2.08;;;10.60;94.70;;;;;;5072823;28;20029;-74
2023/03/04 12:17:42;;;;;;;8.35;1.95;;;10.50;94.50;;;;;;5072702;28;20020;-74
2023/03/04 12:20:25;;;;;;;15.43;2.10;;;10.40;94.40;;;;;;5073383;28;20028;-75
2023/03/04 12:23:10;;;;;;;11.45;2.10;;;10.20;94.10;;;;;;5071318;28;20039;-78
2023/03/04 12:25:42;;;;;;;7.97;1.70;;;10.40;94.70;;;;;;5072500;28;20065;-72
2023/03/04 12:28:50;;;;;;;10.38;1.60;;;10.60;95.10;;;;;;5072172;28;20117;-75
2023/03/04 12:31:44;;;;;;;9.45;2.00;;;10.50;94.50;;;;;;5071033;28;20036;-75
2023/03/04 12:34:33;;;;;;;13.93;2.92;;;10.30;94.20;;;;;;5072218;28;20070;-75
2023/03/04 12:37:42;;;;;;;17.92;2.72;;;10.20;94.10;;;;;;5071275;28;20028;-83
2023/03/04 12:40:32;;;;;;;14.38;4.13;;;9.90;95.10;;;;;;5008094;28;20039;-73
2023/03/04 12:43:20;;;;;;;16.48;3.08;;;10.20;94.80;;;;;;5072071;28;20049;-72
2023/03/04 12:46:26;;;;;;;14.50;3.60;;;10.30;94.80;;;;;;5071854;28;20039;-70
2023/03/04 12:48:58;;;;;;;15.23;3.75;;;10.30;94.60;;;;;;5054217;28;20370;-75
2023/03/04 12:51:39;;;;;;;14.05;3.42;;;10.30;94.80;;;;;;5071552;28;20035;-77
2023/03/04 12:54:20;;;;;;;12.10;3.70;;;10.40;94.80;;;;;;5070230;28;20040;-76
2023/03/04 12:57:03;;;;;;;10.20;3.20;;;10.30;94.80;;;;;;5071369;28;20126;-75
2023/03/04 12:59:35;;;;;;;27.52;9.80;;;10.20;94.60;;;;;;5071919;28;20021;-74
2023/03/04 13:02:31;;;;;;;13.45;3.42;;;10.20;94.70;;;;;;5072039;28;20045;-75
2023/03/04 13:05:15;;;;;;;11.73;3.42;;;9.90;95.20;;;;;;5071670;28;20063;-75